map of NSH home
NSH - Airport
Location
City:  Now Shahr, Mazandaran, Iran
ICAO:OINN
IATA:NSH

Details
Type:Airport (Aerodrome, Airfield)
Latitude:3639'48"N (36.663333)
Longitude:5127'53"E (51.464722)
Datum:WGS 1984
Elevation:-61 ft (-18 m)
Variation:5.10E (WMM2015v2 magnetic declination)
0.06 annual change
Runways:1
Longest:6182 × 115 ft (1884 × 35 m), paved

Time
Time Zone:UTC+3:30 (DST+4:30)
Local Time:

Weather
METAR:OINN 041400Z 11004KT 9999 FEW025TCU BKN028 10/06 Q1031

Related Locations
Nearby:
Farthest:GMR: 11423 mi / 18383 km
Mangareva [Totegegie], Gambier Islands, PF

Find:

   beyond  
but within

Other Information
Maps:
NOTAMs:
Links:
Sources:

  
  • flag of Iran
  

Sectional Chart

Flight Planning
at skyvector.com

Satellite Image

Google Maps Satellite view

 

Copyright © 2004-2019 Karl L. Swartz. All rights reserved.
The Great Circle Mapper name and logo are trademarks of the Great Circle Mapper.
All other trademarks mentioned herein belong to their respective owners.
Please see credits for attibutions and further copyright information.

  Follow gcmap on Facebook Follow gcmap on Twitter GCmap on LinkedIn

hCard Microformat

Geo Microformat